sensor_id;sensor_type;location;lat;lon;timestamp;temperature;humidity
39919;DHT22;25589;51.552;13.424;2023-08-12T00:00:16;20.90;99.90
39919;DHT22;25589;51.552;13.424;2023-08-12T00:02:45;20.90;99.90
39919;DHT22;25589;51.552;13.424;2023-08-12T00:05:12;20.90;99.90
39919;DHT22;25589;51.552;13.424;2023-08-12T00:07:39;20.90;99.90
39919;DHT22;25589;51.552;13.424;2023-08-12T00:10:09;20.80;99.90
39919;DHT22;25589;51.552;13.424;2023-08-12T00:12:35;20.80;99.90
39919;DHT22;25589;51.552;13.424;2023-08-12T00:15:02;20.70;99.90
39919;DHT22;25589;51.552;13.424;2023-08-12T00:17:29;20.70;99.90
39919;DHT22;25589;51.552;13.424;2023-08-12T00:19:55;20.70;99.90
39919;DHT22;25589;51.552;13.424;2023-08-12T00:22:22;20.70;99.90
39919;DHT22;25589;51.552;13.424;2023-08-12T00:24:47;20.60;99.90
39919;DHT22;25589;51.552;13.424;2023-08-12T00:27:13;20.60;99.90
39919;DHT22;25589;51.552;13.424;2023-08-12T00:29:39;20.60;99.90
39919;DHT22;25589;51.552;13.424;2023-08-12T00:32:05;20.50;99.90
39919;DHT22;25589;51.552;13.424;2023-08-12T00:34:31;20.60;99.90
39919;DHT22;25589;51.552;13.424;2023-08-12T00:36:56;20.60;99.90
39919;DHT22;25589;51.552;13.424;2023-08-12T00:39:22;20.50;99.90
39919;DHT22;25589;51.552;13.424;2023-08-12T00:41:48;20.50;99.90
39919;DHT22;25589;51.552;13.424;2023-08-12T00:44:14;20.40;99.90
39919;DHT22;25589;51.552;13.424;2023-08-12T00:46:41;20.50;99.90
39919;DHT22;25589;51.552;13.424;2023-08-12T00:49:09;20.40;99.90
39919;DHT22;25589;51.552;13.424;2023-08-12T00:51:35;20.40;99.90
39919;DHT22;25589;51.552;13.424;2023-08-12T00:54:04;20.40;99.90
39919;DHT22;25589;51.552;13.424;2023-08-12T00:56:31;20.40;99.90
39919;DHT22;25589;51.552;13.424;2023-08-12T00:59:02;20.40;99.90
39919;DHT22;25589;51.552;13.424;2023-08-12T01:01:30;20.30;99.90
39919;DHT22;25589;51.552;13.424;2023-08-12T01:03:56;20.30;99.90
39919;DHT22;25589;51.552;13.424;2023-08-12T01:06:23;20.20;99.90
39919;DHT22;25589;51.552;13.424;2023-08-12T01:08:48;20.20;99.90
39919;DHT22;25589;51.552;13.424;2023-08-12T01:11:30;20.20;99.90
39919;DHT22;25589;51.552;13.424;2023-08-12T01:14:18;20.20;99.90
39919;DHT22;25589;51.552;13.424;2023-08-12T01:16:50;20.20;99.90
39919;DHT22;25589;51.552;13.424;2023-08-12T01:19:39;20.20;99.90
39919;DHT22;25589;51.552;13.424;2023-08-12T01:22:08;20.20;99.90
39919;DHT22;25589;51.552;13.424;2023-08-12T01:24:35;20.20;99.90
39919;DHT22;25589;51.552;13.424;2023-08-12T01:27:03;20.10;99.90
39919;DHT22;25589;51.552;13.424;2023-08-12T01:29:30;20.10;99.90
39919;DHT22;25589;51.552;13.424;2023-08-12T01:32:05;20.10;99.90
39919;DHT22;25589;51.552;13.424;2023-08-12T01:34:44;20.10;99.90
39919;DHT22;25589;51.552;13.424;2023-08-12T01:37:20;20.10;99.90
39919;DHT22;25589;51.552;13.424;2023-08-12T01:39:49;20.10;99.90
39919;DHT22;25589;51.552;13.424;2023-08-12T01:42:16;20.00;99.90
39919;DHT22;25589;51.552;13.424;2023-08-12T01:44:44;20.00;99.90
39919;DHT22;25589;51.552;13.424;2023-08-12T01:47:09;20.00;99.90
39919;DHT22;25589;51.552;13.424;2023-08-12T01:49:36;19.90;99.90
39919;DHT22;25589;51.552;13.424;2023-08-12T01:52:03;20.10;99.90
39919;DHT22;25589;51.552;13.424;2023-08-12T01:54:28;19.90;99.90
39919;DHT22;25589;51.552;13.424;2023-08-12T01:57:03;19.80;99.90
39919;DHT22;25589;51.552;13.424;2023-08-12T01:59:37;19.80;99.90
39919;DHT22;25589;51.552;13.424;2023-08-12T02:02:03;19.70;99.90
39919;DHT22;25589;51.552;13.424;2023-08-12T02:04:29;19.70;99.90
39919;DHT22;25589;51.552;13.424;2023-08-12T02:06:55;19.70;99.90
39919;DHT22;25589;51.552;13.424;2023-08-12T02:09:21;19.60;99.90
39919;DHT22;25589;51.552;13.424;2023-08-12T02:11:48;19.70;99.90
39919;DHT22;25589;51.552;13.424;2023-08-12T02:14:13;19.60;99.90
39919;DHT22;25589;51.552;13.424;2023-08-12T02:16:39;19.60;99.90
39919;DHT22;25589;51.552;13.424;2023-08-12T02:19:05;19.50;99.90
39919;DHT22;25589;51.552;13.424;2023-08-12T02:21:30;19.50;99.90
39919;DHT22;25589;51.552;13.424;2023-08-12T02:23:57;19.40;99.90
39919;DHT22;25589;51.552;13.424;2023-08-12T02:26:23;19.40;99.90
39919;DHT22;25589;51.552;13.424;2023-08-12T02:28:48;19.40;99.90
39919;DHT22;25589;51.552;13.424;2023-08-12T02:31:16;19.40;99.90
39919;DHT22;25589;51.552;13.424;2023-08-12T02:33:42;19.40;99.90
39919;DHT22;25589;51.552;13.424;2023-08-12T02:36:07;19.30;99.90
39919;DHT22;25589;51.552;13.424;2023-08-12T02:38:33;19.30;99.90
39919;DHT22;25589;51.552;13.424;2023-08-12T02:40:58;19.30;99.90
39919;DHT22;25589;51.552;13.424;2023-08-12T02:43:24;19.30;99.90
39919;DHT22;25589;51.552;13.424;2023-08-12T02:45:49;19.30;99.90
39919;DHT22;25589;51.552;13.424;2023-08-12T02:48:15;19.20;99.90
39919;DHT22;25589;51.552;13.424;2023-08-12T02:50:41;19.30;99.90
39919;DHT22;25589;51.552;13.424;2023-08-12T02:53:07;19.30;99.90
39919;DHT22;25589;51.552;13.424;2023-08-12T02:55:33;19.20;99.90
39919;DHT22;25589;51.552;13.424;2023-08-12T02:58:00;19.20;99.90
39919;DHT22;25589;51.552;13.424;2023-08-12T03:00:26;19.20;99.90
39919;DHT22;25589;51.552;13.424;2023-08-12T03:02:51;19.10;99.90
39919;DHT22;25589;51.552;13.424;2023-08-12T03:05:17;19.10;99.90
39919;DHT22;25589;51.552;13.424;2023-08-12T03:07:42;19.10;99.90
39919;DHT22;25589;51.552;13.424;2023-08-12T03:10:08;19.10;99.90
39919;DHT22;25589;51.552;13.424;2023-08-12T03:12:35;19.10;99.90
39919;DHT22;25589;51.552;13.424;2023-08-12T03:15:01;19.10;99.90
39919;DHT22;25589;51.552;13.424;2023-08-12T03:17:27;19.10;99.90
39919;DHT22;25589;51.552;13.424;2023-08-12T03:19:53;19.10;99.90
39919;DHT22;25589;51.552;13.424;2023-08-12T03:22:22;19.10;99.90
39919;DHT22;25589;51.552;13.424;2023-08-12T03:24:48;19.10;99.90
39919;DHT22;25589;51.552;13.424;2023-08-12T03:27:14;19.10;99.90
39919;DHT22;25589;51.552;13.424;2023-08-12T03:29:41;19.00;99.90
39919;DHT22;25589;51.552;13.424;2023-08-12T03:32:08;19.00;99.90
39919;DHT22;25589;51.552;13.424;2023-08-12T03:34:34;19.00;99.90
39919;DHT22;25589;51.552;13.424;2023-08-12T03:37:00;19.00;99.90
39919;DHT22;25589;51.552;13.424;2023-08-12T03:39:26;19.00;99.90
39919;DHT22;25589;51.552;13.424;2023-08-12T03:41:52;18.90;99.90
39919;DHT22;25589;51.552;13.424;2023-08-12T03:44:19;19.00;99.90
39919;DHT22;25589;51.552;13.424;2023-08-12T03:46:45;18.90;99.90
39919;DHT22;25589;51.552;13.424;2023-08-12T03:49:10;18.90;99.90
39919;DHT22;25589;51.552;13.424;2023-08-12T03:51:37;18.90;99.90
39919;DHT22;25589;51.552;13.424;2023-08-12T03:54:03;18.90;99.90
39919;DHT22;25589;51.552;13.424;2023-08-12T03:56:29;18.90;99.90
39919;DHT22;25589;51.552;13.424;2023-08-12T03:58:55;18.90;99.90
39919;DHT22;25589;51.552;13.424;2023-08-12T04:01:21;18.90;99.90
39919;DHT22;25589;51.552;13.424;2023-08-12T04:03:47;18.90;99.90
39919;DHT22;25589;51.552;13.424;2023-08-12T04:06:13;18.90;99.90
39919;DHT22;25589;51.552;13.424;2023-08-12T04:08:40;18.90;99.90
39919;DHT22;25589;51.552;13.424;2023-08-12T04:11:06;18.90;99.90
39919;DHT22;25589;51.552;13.424;2023-08-12T04:13:31;18.90;99.90
39919;DHT22;25589;51.552;13.424;2023-08-12T04:15:57;18.90;99.90
39919;DHT22;25589;51.552;13.424;2023-08-12T04:18:24;19.10;99.90
39919;DHT22;25589;51.552;13.424;2023-08-12T04:20:51;18.90;99.90
39919;DHT22;25589;51.552;13.424;2023-08-12T04:23:17;18.90;99.90
39919;DHT22;25589;51.552;13.424;2023-08-12T04:25:43;18.90;99.90
39919;DHT22;25589;51.552;13.424;2023-08-12T04:28:12;18.90;99.90
39919;DHT22;25589;51.552;13.424;2023-08-12T04:30:45;18.90;99.90
39919;DHT22;25589;51.552;13.424;2023-08-12T04:33:13;18.90;99.90
39919;DHT22;25589;51.552;13.424;2023-08-12T04:35:40;19.00;99.90
39919;DHT22;25589;51.552;13.424;2023-08-12T04:38:07;19.10;99.90
39919;DHT22;25589;51.552;13.424;2023-08-12T04:40:33;19.10;99.90
39919;DHT22;25589;51.552;13.424;2023-08-12T04:42:59;19.10;99.90
39919;DHT22;25589;51.552;13.424;2023-08-12T04:45:25;19.20;99.90
39919;DHT22;25589;51.552;13.424;2023-08-12T04:47:52;19.30;99.90
39919;DHT22;25589;51.552;13.424;2023-08-12T04:50:18;19.20;99.90
39919;DHT22;25589;51.552;13.424;2023-08-12T04:52:44;19.30;99.90
39919;DHT22;25589;51.552;13.424;2023-08-12T04:55:10;19.30;99.90
39919;DHT22;25589;51.552;13.424;2023-08-12T04:57:40;19.40;99.90
39919;DHT22;25589;51.552;13.424;2023-08-12T05:00:06;19.30;99.90
39919;DHT22;25589;51.552;13.424;2023-08-12T05:02:34;19.30;99.90
39919;DHT22;25589;51.552;13.424;2023-08-12T05:05:01;19.40;99.90
39919;DHT22;25589;51.552;13.424;2023-08-12T05:07:27;19.40;99.90
39919;DHT22;25589;51.552;13.424;2023-08-12T05:09:53;19.50;99.90
39919;DHT22;25589;51.552;13.424;2023-08-12T05:12:19;19.50;99.90
39919;DHT22;25589;51.552;13.424;2023-08-12T05:14:44;19.60;99.90
39919;DHT22;25589;51.552;13.424;2023-08-12T05:17:10;19.60;99.90
39919;DHT22;25589;51.552;13.424;2023-08-12T05:19:37;19.70;99.90
39919;DHT22;25589;51.552;13.424;2023-08-12T05:22:02;19.80;99.90
39919;DHT22;25589;51.552;13.424;2023-08-12T05:24:28;19.80;99.90
39919;DHT22;25589;51.552;13.424;2023-08-12T05:26:54;19.90;99.90
39919;DHT22;25589;51.552;13.424;2023-08-12T05:29:19;19.90;99.90
39919;DHT22;25589;51.552;13.424;2023-08-12T05:31:45;20.00;99.90
39919;DHT22;25589;51.552;13.424;2023-08-12T05:34:10;20.00;99.90
39919;DHT22;25589;51.552;13.424;2023-08-12T05:36:36;20.20;99.90
39919;DHT22;25589;51.552;13.424;2023-08-12T05:39:02;20.20;99.90
39919;DHT22;25589;51.552;13.424;2023-08-12T05:41:28;20.30;99.90
39919;DHT22;25589;51.552;13.424;2023-08-12T05:43:54;20.40;99.90
39919;DHT22;25589;51.552;13.424;2023-08-12T05:46:21;20.50;99.90
39919;DHT22;25589;51.552;13.424;2023-08-12T05:48:46;20.60;99.90
39919;DHT22;25589;51.552;13.424;2023-08-12T05:51:12;20.60;99.90
39919;DHT22;25589;51.552;13.424;2023-08-12T05:53:38;20.80;99.90
39919;DHT22;25589;51.552;13.424;2023-08-12T05:56:03;20.80;99.90
39919;DHT22;25589;51.552;13.424;2023-08-12T05:58:29;20.90;99.90
39919;DHT22;25589;51.552;13.424;2023-08-12T06:00:55;21.10;99.90
39919;DHT22;25589;51.552;13.424;2023-08-12T06:03:20;21.10;99.90
39919;DHT22;25589;51.552;13.424;2023-08-12T06:05:46;21.20;99.90
39919;DHT22;25589;51.552;13.424;2023-08-12T06:08:13;21.30;99.90
39919;DHT22;25589;51.552;13.424;2023-08-12T06:10:38;21.30;99.90
39919;DHT22;25589;51.552;13.424;2023-08-12T06:13:04;21.50;99.90
39919;DHT22;25589;51.552;13.424;2023-08-12T06:15:31;21.50;99.90
39919;DHT22;25589;51.552;13.424;2023-08-12T06:17:56;21.60;99.90
39919;DHT22;25589;51.552;13.424;2023-08-12T06:20:23;21.60;99.90
39919;DHT22;25589;51.552;13.424;2023-08-12T06:22:49;21.70;99.90
39919;DHT22;25589;51.552;13.424;2023-08-12T06:25:14;21.70;99.90
39919;DHT22;25589;51.552;13.424;2023-08-12T06:27:40;21.80;99.90
39919;DHT22;25589;51.552;13.424;2023-08-12T06:30:06;21.80;99.90
39919;DHT22;25589;51.552;13.424;2023-08-12T06:32:34;21.90;99.90
39919;DHT22;25589;51.552;13.424;2023-08-12T06:34:59;21.90;99.90
39919;DHT22;25589;51.552;13.424;2023-08-12T06:37:25;22.00;99.90
39919;DHT22;25589;51.552;13.424;2023-08-12T06:39:50;22.00;99.90
39919;DHT22;25589;51.552;13.424;2023-08-12T06:42:16;22.10;99.90
39919;DHT22;25589;51.552;13.424;2023-08-12T06:44:41;22.10;99.90
39919;DHT22;25589;51.552;13.424;2023-08-12T06:47:07;22.20;99.90
39919;DHT22;25589;51.552;13.424;2023-08-12T06:49:32;22.30;99.90
39919;DHT22;25589;51.552;13.424;2023-08-12T06:51:58;22.30;99.90
39919;DHT22;25589;51.552;13.424;2023-08-12T06:54:23;22.30;99.90
39919;DHT22;25589;51.552;13.424;2023-08-12T06:56:50;22.40;99.90
39919;DHT22;25589;51.552;13.424;2023-08-12T06:59:15;22.50;99.90
39919;DHT22;25589;51.552;13.424;2023-08-12T07:01:41;22.60;99.90
39919;DHT22;25589;51.552;13.424;2023-08-12T07:04:06;22.60;99.90
39919;DHT22;25589;51.552;13.424;2023-08-12T07:06:32;22.60;99.90
39919;DHT22;25589;51.552;13.424;2023-08-12T07:08:57;22.60;99.90
39919;DHT22;25589;51.552;13.424;2023-08-12T07:11:23;22.70;99.90
39919;DHT22;25589;51.552;13.424;2023-08-12T07:13:49;22.70;99.90
39919;DHT22;25589;51.552;13.424;2023-08-12T07:16:14;22.80;99.90
39919;DHT22;25589;51.552;13.424;2023-08-12T07:18:40;22.80;99.90
39919;DHT22;25589;51.552;13.424;2023-08-12T07:21:06;22.90;99.90
39919;DHT22;25589;51.552;13.424;2023-08-12T07:23:31;22.90;99.90
39919;DHT22;25589;51.552;13.424;2023-08-12T07:25:57;23.00;99.90
39919;DHT22;25589;51.552;13.424;2023-08-12T07:28:22;23.00;99.90
39919;DHT22;25589;51.552;13.424;2023-08-12T07:30:49;23.10;99.90
39919;DHT22;25589;51.552;13.424;2023-08-12T07:33:15;23.20;99.90
39919;DHT22;25589;51.552;13.424;2023-08-12T07:35:41;23.30;99.90
39919;DHT22;25589;51.552;13.424;2023-08-12T07:38:06;23.40;99.90
39919;DHT22;25589;51.552;13.424;2023-08-12T07:40:32;23.40;99.90
39919;DHT22;25589;51.552;13.424;2023-08-12T07:42:58;23.50;99.90
39919;DHT22;25589;51.552;13.424;2023-08-12T07:45:23;23.60;99.90
39919;DHT22;25589;51.552;13.424;2023-08-12T07:47:49;23.70;99.90
39919;DHT22;25589;51.552;13.424;2023-08-12T07:50:15;23.70;99.90
39919;DHT22;25589;51.552;13.424;2023-08-12T07:52:41;23.90;99.90
39919;DHT22;25589;51.552;13.424;2023-08-12T07:55:06;23.90;99.90
39919;DHT22;25589;51.552;13.424;2023-08-12T07:57:32;24.10;99.90
39919;DHT22;25589;51.552;13.424;2023-08-12T07:59:58;24.20;99.90
39919;DHT22;25589;51.552;13.424;2023-08-12T08:02:23;24.30;99.90
39919;DHT22;25589;51.552;13.424;2023-08-12T08:04:49;24.40;99.90
39919;DHT22;25589;51.552;13.424;2023-08-12T08:07:15;24.50;99.90
39919;DHT22;25589;51.552;13.424;2023-08-12T08:09:42;24.60;99.90
39919;DHT22;25589;51.552;13.424;2023-08-12T08:12:08;24.80;99.90
39919;DHT22;25589;51.552;13.424;2023-08-12T08:14:34;24.90;99.90
39919;DHT22;25589;51.552;13.424;2023-08-12T08:16:59;24.90;99.90
39919;DHT22;25589;51.552;13.424;2023-08-12T08:19:25;25.00;99.90
39919;DHT22;25589;51.552;13.424;2023-08-12T08:21:50;25.10;99.90
39919;DHT22;25589;51.552;13.424;2023-08-12T08:24:16;25.20;99.90
39919;DHT22;25589;51.552;13.424;2023-08-12T08:26:41;25.30;99.90
39919;DHT22;25589;51.552;13.424;2023-08-12T08:29:07;25.40;99.90
39919;DHT22;25589;51.552;13.424;2023-08-12T08:31:33;25.50;99.90
39919;DHT22;25589;51.552;13.424;2023-08-12T08:33:58;25.60;99.90
39919;DHT22;25589;51.552;13.424;2023-08-12T08:36:25;25.70;99.90
39919;DHT22;25589;51.552;13.424;2023-08-12T08:38:51;25.80;99.90
39919;DHT22;25589;51.552;13.424;2023-08-12T08:41:17;25.90;99.90
39919;DHT22;25589;51.552;13.424;2023-08-12T08:43:43;25.90;99.90
39919;DHT22;25589;51.552;13.424;2023-08-12T08:46:10;25.90;99.90
39919;DHT22;25589;51.552;13.424;2023-08-12T08:48:41;25.90;99.90
39919;DHT22;25589;51.552;13.424;2023-08-12T08:51:08;26.00;99.90
39919;DHT22;25589;51.552;13.424;2023-08-12T08:53:37;26.00;99.90
39919;DHT22;25589;51.552;13.424;2023-08-12T08:56:05;26.00;99.90
39919;DHT22;25589;51.552;13.424;2023-08-12T08:58:32;25.90;99.90
39919;DHT22;25589;51.552;13.424;2023-08-12T09:00:57;25.90;99.90
39919;DHT22;25589;51.552;13.424;2023-08-12T09:03:24;25.90;99.90
39919;DHT22;25589;51.552;13.424;2023-08-12T09:05:51;25.90;99.90
39919;DHT22;25589;51.552;13.424;2023-08-12T09:08:18;25.90;99.90
39919;DHT22;25589;51.552;13.424;2023-08-12T09:10:45;26.00;99.90
39919;DHT22;25589;51.552;13.424;2023-08-12T09:13:11;26.10;99.90
39919;DHT22;25589;51.552;13.424;2023-08-12T09:15:36;26.10;99.90
39919;DHT22;25589;51.552;13.424;2023-08-12T09:18:05;26.20;99.90
39919;DHT22;25589;51.552;13.424;2023-08-12T09:20:32;26.40;99.90
39919;DHT22;25589;51.552;13.424;2023-08-12T09:22:59;26.50;99.90
39919;DHT22;25589;51.552;13.424;2023-08-12T09:25:28;26.50;99.90
39919;DHT22;25589;51.552;13.424;2023-08-12T09:27:55;26.70;99.90
39919;DHT22;25589;51.552;13.424;2023-08-12T09:30:23;26.70;99.90
39919;DHT22;25589;51.552;13.424;2023-08-12T09:33:00;26.90;99.90
39919;DHT22;25589;51.552;13.424;2023-08-12T09:35:33;27.00;99.90
39919;DHT22;25589;51.552;13.424;2023-08-12T09:38:00;27.20;99.90
39919;DHT22;25589;51.552;13.424;2023-08-12T09:40:26;27.30;99.90
39919;DHT22;25589;51.552;13.424;2023-08-12T09:42:51;27.50;99.90
39919;DHT22;25589;51.552;13.424;2023-08-12T09:45:17;27.70;99.90
39919;DHT22;25589;51.552;13.424;2023-08-12T09:47:46;28.00;99.90
39919;DHT22;25589;51.552;13.424;2023-08-12T09:50:11;28.20;99.90
39919;DHT22;25589;51.552;13.424;2023-08-12T09:52:39;28.40;99.90
39919;DHT22;25589;51.552;13.424;2023-08-12T09:55:05;28.50;99.90
39919;DHT22;25589;51.552;13.424;2023-08-12T09:57:33;28.60;99.90
39919;DHT22;25589;51.552;13.424;2023-08-12T10:00:01;28.70;99.90
39919;DHT22;25589;51.552;13.424;2023-08-12T10:02:30;28.70;99.90
39919;DHT22;25589;51.552;13.424;2023-08-12T10:04:56;28.80;99.90
39919;DHT22;25589;51.552;13.424;2023-08-12T10:07:25;28.70;99.90
39919;DHT22;25589;51.552;13.424;2023-08-12T10:09:51;28.70;99.90
39919;DHT22;25589;51.552;13.424;2023-08-12T10:12:17;28.80;99.90
39919;DHT22;25589;51.552;13.424;2023-08-12T10:14:43;28.80;99.90
39919;DHT22;25589;51.552;13.424;2023-08-12T10:17:09;28.90;99.90
39919;DHT22;25589;51.552;13.424;2023-08-12T10:19:36;28.90;99.90
39919;DHT22;25589;51.552;13.424;2023-08-12T10:22:03;28.90;99.90
39919;DHT22;25589;51.552;13.424;2023-08-12T10:24:29;28.90;99.90
39919;DHT22;25589;51.552;13.424;2023-08-12T10:26:55;29.00;99.90
39919;DHT22;25589;51.552;13.424;2023-08-12T10:29:23;29.00;99.90
39919;DHT22;25589;51.552;13.424;2023-08-12T10:31:50;29.10;99.90
39919;DHT22;25589;51.552;13.424;2023-08-12T10:34:20;29.20;99.90
39919;DHT22;25589;51.552;13.424;2023-08-12T10:36:46;29.30;99.90
39919;DHT22;25589;51.552;13.424;2023-08-12T10:39:13;29.30;99.90
39919;DHT22;25589;51.552;13.424;2023-08-12T10:41:39;29.40;99.90
39919;DHT22;25589;51.552;13.424;2023-08-12T10:44:15;29.40;99.90
39919;DHT22;25589;51.552;13.424;2023-08-12T10:46:50;29.60;99.90
39919;DHT22;25589;51.552;13.424;2023-08-12T10:49:18;29.80;99.90
39919;DHT22;25589;51.552;13.424;2023-08-12T10:51:51;30.00;99.90
39919;DHT22;25589;51.552;13.424;2023-08-12T10:57:13;29.90;99.90
39919;DHT22;25589;51.552;13.424;2023-08-12T11:02:26;29.30;99.90
39919;DHT22;25589;51.552;13.424;2023-08-12T11:05:07;28.90;99.90
39919;DHT22;25589;51.552;13.424;2023-08-12T11:07:44;28.50;99.90
39919;DHT22;25589;51.552;13.424;2023-08-12T11:10:24;28.40;99.90
39919;DHT22;25589;51.552;13.424;2023-08-12T11:15:18;28.10;99.90
39919;DHT22;25589;51.552;13.424;2023-08-12T11:17:47;28.10;99.90
39919;DHT22;25589;51.552;13.424;2023-08-12T11:20:13;28.10;99.90
39919;DHT22;25589;51.552;13.424;2023-08-12T11:22:40;28.00;99.90
39919;DHT22;25589;51.552;13.424;2023-08-12T11:25:11;28.00;99.90
39919;DHT22;25589;51.552;13.424;2023-08-12T11:27:45;27.90;99.90
39919;DHT22;25589;51.552;13.424;2023-08-12T11:30:17;27.90;99.90
39919;DHT22;25589;51.552;13.424;2023-08-12T11:32:44;28.00;99.90
39919;DHT22;25589;51.552;13.424;2023-08-12T11:35:10;28.00;99.90
39919;DHT22;25589;51.552;13.424;2023-08-12T11:37:40;28.00;99.90
39919;DHT22;25589;51.552;13.424;2023-08-12T11:40:08;28.20;99.90
39919;DHT22;25589;51.552;13.424;2023-08-12T11:42:35;28.30;99.90
39919;DHT22;25589;51.552;13.424;2023-08-12T11:45:02;28.40;99.90
39919;DHT22;25589;51.552;13.424;2023-08-12T11:47:28;28.40;99.90
39919;DHT22;25589;51.552;13.424;2023-08-12T11:49:53;28.60;99.90
39919;DHT22;25589;51.552;13.424;2023-08-12T11:52:19;28.60;99.90
39919;DHT22;25589;51.552;13.424;2023-08-12T11:54:45;28.70;99.90
39919;DHT22;25589;51.552;13.424;2023-08-12T11:57:11;28.80;99.90
39919;DHT22;25589;51.552;13.424;2023-08-12T11:59:37;28.80;99.90
39919;DHT22;25589;51.552;13.424;2023-08-12T12:02:03;28.80;99.90
39919;DHT22;25589;51.552;13.424;2023-08-12T12:04:31;28.80;99.90
39919;DHT22;25589;51.552;13.424;2023-08-12T12:06:57;28.60;99.90
39919;DHT22;25589;51.552;13.424;2023-08-12T12:09:22;28.70;99.90
39919;DHT22;25589;51.552;13.424;2023-08-12T12:11:52;28.70;99.90
39919;DHT22;25589;51.552;13.424;2023-08-12T12:14:18;28.80;99.90
39919;DHT22;25589;51.552;13.424;2023-08-12T12:16:45;28.90;99.90
39919;DHT22;25589;51.552;13.424;2023-08-12T12:19:22;28.90;99.90
39919;DHT22;25589;51.552;13.424;2023-08-12T12:21:50;28.80;99.90
39919;DHT22;25589;51.552;13.424;2023-08-12T12:24:16;28.70;99.90
39919;DHT22;25589;51.552;13.424;2023-08-12T12:26:43;28.70;99.90
39919;DHT22;25589;51.552;13.424;2023-08-12T12:29:09;28.60;99.90
39919;DHT22;25589;51.552;13.424;2023-08-12T12:31:37;28.50;99.90
39919;DHT22;25589;51.552;13.424;2023-08-12T12:34:03;28.40;99.90
39919;DHT22;25589;51.552;13.424;2023-08-12T12:36:30;28.40;99.90
39919;DHT22;25589;51.552;13.424;2023-08-12T12:38:56;28.30;99.90
39919;DHT22;25589;51.552;13.424;2023-08-12T12:41:21;28.20;99.90
39919;DHT22;25589;51.552;13.424;2023-08-12T12:43:47;28.20;99.90
39919;DHT22;25589;51.552;13.424;2023-08-12T12:46:12;28.20;99.90
39919;DHT22;25589;51.552;13.424;2023-08-12T12:48:38;28.20;99.90
39919;DHT22;25589;51.552;13.424;2023-08-12T12:51:04;28.10;99.90
39919;DHT22;25589;51.552;13.424;2023-08-12T12:53:29;28.10;99.90
39919;DHT22;25589;51.552;13.424;2023-08-12T12:55:55;28.20;99.90
39919;DHT22;25589;51.552;13.424;2023-08-12T12:58:22;28.20;99.90
39919;DHT22;25589;51.552;13.424;2023-08-12T13:00:49;28.40;99.90
39919;DHT22;25589;51.552;13.424;2023-08-12T13:03:14;28.60;99.90
39919;DHT22;25589;51.552;13.424;2023-08-12T13:05:41;28.70;99.90
39919;DHT22;25589;51.552;13.424;2023-08-12T13:08:07;28.80;99.90
39919;DHT22;25589;51.552;13.424;2023-08-12T13:10:33;29.00;99.90
39919;DHT22;25589;51.552;13.424;2023-08-12T13:12:59;29.00;99.90
39919;DHT22;25589;51.552;13.424;2023-08-12T13:15:24;29.20;99.90
39919;DHT22;25589;51.552;13.424;2023-08-12T13:17:52;29.30;99.90
39919;DHT22;25589;51.552;13.424;2023-08-12T13:20:17;29.40;99.90
39919;DHT22;25589;51.552;13.424;2023-08-12T13:22:43;29.70;99.90
39919;DHT22;25589;51.552;13.424;2023-08-12T13:25:08;30.00;99.90
39919;DHT22;25589;51.552;13.424;2023-08-12T13:27:34;30.40;99.90
39919;DHT22;25589;51.552;13.424;2023-08-12T13:29:59;30.50;99.90
39919;DHT22;25589;51.552;13.424;2023-08-12T13:32:25;30.60;99.90
39919;DHT22;25589;51.552;13.424;2023-08-12T13:34:50;31.00;99.70
39919;DHT22;25589;51.552;13.424;2023-08-12T13:37:16;31.20;99.20
39919;DHT22;25589;51.552;13.424;2023-08-12T13:39:42;31.20;98.70
39919;DHT22;25589;51.552;13.424;2023-08-12T13:42:07;31.30;98.30
39919;DHT22;25589;51.552;13.424;2023-08-12T13:44:33;31.60;97.90
39919;DHT22;25589;51.552;13.424;2023-08-12T13:46:58;31.90;97.90
39919;DHT22;25589;51.552;13.424;2023-08-12T13:49:24;31.80;97.50
39919;DHT22;25589;51.552;13.424;2023-08-12T13:51:50;31.90;96.90
39919;DHT22;25589;51.552;13.424;2023-08-12T13:54:15;32.20;97.00
39919;DHT22;25589;51.552;13.424;2023-08-12T13:56:41;32.50;96.20
39919;DHT22;25589;51.552;13.424;2023-08-12T13:59:06;32.80;95.50
39919;DHT22;25589;51.552;13.424;2023-08-12T14:01:32;33.00;95.10
39919;DHT22;25589;51.552;13.424;2023-08-12T14:03:57;33.10;94.30
39919;DHT22;25589;51.552;13.424;2023-08-12T14:06:23;33.30;94.50
39919;DHT22;25589;51.552;13.424;2023-08-12T14:08:49;33.50;93.70
39919;DHT22;25589;51.552;13.424;2023-08-12T14:11:14;33.80;92.70
39919;DHT22;25589;51.552;13.424;2023-08-12T14:13:40;34.10;91.80
39919;DHT22;25589;51.552;13.424;2023-08-12T14:16:06;34.30;91.40
39919;DHT22;25589;51.552;13.424;2023-08-12T14:18:31;34.60;90.60
39919;DHT22;25589;51.552;13.424;2023-08-12T14:20:57;34.90;89.90
39919;DHT22;25589;51.552;13.424;2023-08-12T14:23:22;35.00;87.50
39919;DHT22;25589;51.552;13.424;2023-08-12T14:25:48;35.20;85.90
39919;DHT22;25589;51.552;13.424;2023-08-12T14:28:14;35.40;84.90
39919;DHT22;25589;51.552;13.424;2023-08-12T14:30:39;35.50;84.70
39919;DHT22;25589;51.552;13.424;2023-08-12T14:33:05;35.70;83.20
39919;DHT22;25589;51.552;13.424;2023-08-12T14:35:33;35.70;81.30
39919;DHT22;25589;51.552;13.424;2023-08-12T14:37:58;35.50;80.60
39919;DHT22;25589;51.552;13.424;2023-08-12T14:40:24;35.60;79.90
39919;DHT22;25589;51.552;13.424;2023-08-12T14:42:50;35.50;78.40
39919;DHT22;25589;51.552;13.424;2023-08-12T14:45:15;35.30;78.40
39919;DHT22;25589;51.552;13.424;2023-08-12T14:47:41;35.00;78.70
39919;DHT22;25589;51.552;13.424;2023-08-12T14:50:07;34.70;78.50
39919;DHT22;25589;51.552;13.424;2023-08-12T14:52:34;34.40;79.20
39919;DHT22;25589;51.552;13.424;2023-08-12T14:54:59;34.20;79.60
39919;DHT22;25589;51.552;13.424;2023-08-12T14:57:25;34.00;80.10
39919;DHT22;25589;51.552;13.424;2023-08-12T14:59:51;33.80;81.10
39919;DHT22;25589;51.552;13.424;2023-08-12T15:02:17;33.70;81.30
39919;DHT22;25589;51.552;13.424;2023-08-12T15:04:43;33.60;81.60
39919;DHT22;25589;51.552;13.424;2023-08-12T15:07:09;33.60;81.70
39919;DHT22;25589;51.552;13.424;2023-08-12T15:09:34;33.50;82.10
39919;DHT22;25589;51.552;13.424;2023-08-12T15:12:00;33.50;82.40
39919;DHT22;25589;51.552;13.424;2023-08-12T15:14:25;33.50;82.60
39919;DHT22;25589;51.552;13.424;2023-08-12T15:16:51;33.50;82.40
39919;DHT22;25589;51.552;13.424;2023-08-12T15:19:17;33.40;81.60